sensor_id;sensor_type;location;lat;lon;timestamp;temperature;humidity
58554;DHT22;48119;53.218;6.576;2023-06-22T00:00:51;21.90;99.90
58554;DHT22;48119;53.218;6.576;2023-06-22T00:03:22;21.90;99.90
58554;DHT22;48119;53.218;6.576;2023-06-22T00:05:49;21.90;99.90
58554;DHT22;48119;53.218;6.576;2023-06-22T00:08:18;21.90;99.90
58554;DHT22;48119;53.218;6.576;2023-06-22T00:10:45;21.90;99.90
58554;DHT22;48119;53.218;6.576;2023-06-22T00:13:11;21.90;99.90
58554;DHT22;48119;53.218;6.576;2023-06-22T00:15:39;21.90;99.90
58554;DHT22;48119;53.218;6.576;2023-06-22T00:18:06;21.90;99.90
58554;DHT22;48119;53.218;6.576;2023-06-22T00:25:45;21.90;99.90
58554;DHT22;48119;53.218;6.576;2023-06-22T00:28:10;21.90;99.90
58554;DHT22;48119;53.218;6.576;2023-06-22T00:30:36;21.90;99.90
58554;DHT22;48119;53.218;6.576;2023-06-22T00:33:02;21.90;99.90
58554;DHT22;48119;53.218;6.576;2023-06-22T00:35:28;21.90;99.90
58554;DHT22;48119;53.218;6.576;2023-06-22T00:37:57;21.80;99.90
58554;DHT22;48119;53.218;6.576;2023-06-22T00:40:27;21.90;99.90
58554;DHT22;48119;53.218;6.576;2023-06-22T00:42:53;21.90;99.90
58554;DHT22;48119;53.218;6.576;2023-06-22T00:45:19;21.90;99.90
58554;DHT22;48119;53.218;6.576;2023-06-22T00:47:45;21.90;99.90
58554;DHT22;48119;53.218;6.576;2023-06-22T00:50:18;21.90;99.90
58554;DHT22;48119;53.218;6.576;2023-06-22T00:52:55;21.80;99.90
58554;DHT22;48119;53.218;6.576;2023-06-22T00:55:25;21.80;99.90
58554;DHT22;48119;53.218;6.576;2023-06-22T00:57:52;21.80;99.90
58554;DHT22;48119;53.218;6.576;2023-06-22T01:00:24;21.80;99.90
58554;DHT22;48119;53.218;6.576;2023-06-22T01:02:53;21.80;99.90
58554;DHT22;48119;53.218;6.576;2023-06-22T01:05:21;21.80;99.90
58554;DHT22;48119;53.218;6.576;2023-06-22T01:13:31;21.80;99.90
58554;DHT22;48119;53.218;6.576;2023-06-22T01:16:15;21.80;99.90
58554;DHT22;48119;53.218;6.576;2023-06-22T01:18:43;21.70;99.90
58554;DHT22;48119;53.218;6.576;2023-06-22T01:21:14;21.70;99.90
58554;DHT22;48119;53.218;6.576;2023-06-22T01:28:57;21.70;99.90
58554;DHT22;48119;53.218;6.576;2023-06-22T01:31:26;21.60;99.90
58554;DHT22;48119;53.218;6.576;2023-06-22T01:34:01;21.70;99.90
58554;DHT22;48119;53.218;6.576;2023-06-22T01:36:28;21.60;99.90
58554;DHT22;48119;53.218;6.576;2023-06-22T01:38:56;21.60;99.90
58554;DHT22;48119;53.218;6.576;2023-06-22T01:41:25;21.60;99.90
58554;DHT22;48119;53.218;6.576;2023-06-22T01:43:53;21.70;99.90
58554;DHT22;48119;53.218;6.576;2023-06-22T01:46:20;21.60;99.90
58554;DHT22;48119;53.218;6.576;2023-06-22T01:48:47;21.60;99.90
58554;DHT22;48119;53.218;6.576;2023-06-22T01:51:13;21.60;99.90
58554;DHT22;48119;53.218;6.576;2023-06-22T01:53:39;21.50;99.90
58554;DHT22;48119;53.218;6.576;2023-06-22T01:56:05;21.50;99.90
58554;DHT22;48119;53.218;6.576;2023-06-22T01:58:32;21.40;99.90
58554;DHT22;48119;53.218;6.576;2023-06-22T02:01:12;21.40;99.90
58554;DHT22;48119;53.218;6.576;2023-06-22T02:03:47;21.40;99.90
58554;DHT22;48119;53.218;6.576;2023-06-22T02:06:25;21.40;99.90
58554;DHT22;48119;53.218;6.576;2023-06-22T02:08:59;21.40;99.90
58554;DHT22;48119;53.218;6.576;2023-06-22T02:11:28;21.40;99.90
58554;DHT22;48119;53.218;6.576;2023-06-22T02:13:55;21.40;99.90
58554;DHT22;48119;53.218;6.576;2023-06-22T02:16:23;21.30;99.90
58554;DHT22;48119;53.218;6.576;2023-06-22T02:18:49;21.30;99.90
58554;DHT22;48119;53.218;6.576;2023-06-22T02:21:19;21.30;99.90
58554;DHT22;48119;53.218;6.576;2023-06-22T02:23:45;21.20;99.90
58554;DHT22;48119;53.218;6.576;2023-06-22T02:26:12;21.20;99.90
58554;DHT22;48119;53.218;6.576;2023-06-22T02:28:37;21.20;99.90
58554;DHT22;48119;53.218;6.576;2023-06-22T02:31:03;21.10;99.90
58554;DHT22;48119;53.218;6.576;2023-06-22T02:33:29;21.10;99.90
58554;DHT22;48119;53.218;6.576;2023-06-22T02:35:55;21.10;99.90
58554;DHT22;48119;53.218;6.576;2023-06-22T02:38:21;21.10;99.90
58554;DHT22;48119;53.218;6.576;2023-06-22T02:40:46;21.10;99.90
58554;DHT22;48119;53.218;6.576;2023-06-22T02:43:13;21.10;99.90
58554;DHT22;48119;53.218;6.576;2023-06-22T02:45:38;21.10;99.90
58554;DHT22;48119;53.218;6.576;2023-06-22T02:48:05;21.10;99.90
58554;DHT22;48119;53.218;6.576;2023-06-22T02:50:30;21.10;99.90
58554;DHT22;48119;53.218;6.576;2023-06-22T02:52:56;21.10;99.90
58554;DHT22;48119;53.218;6.576;2023-06-22T02:55:22;21.10;99.90
58554;DHT22;48119;53.218;6.576;2023-06-22T02:57:49;21.10;99.90
58554;DHT22;48119;53.218;6.576;2023-06-22T03:00:18;21.00;99.90
58554;DHT22;48119;53.218;6.576;2023-06-22T03:02:48;21.10;99.90
58554;DHT22;48119;53.218;6.576;2023-06-22T03:05:14;21.00;99.90
58554;DHT22;48119;53.218;6.576;2023-06-22T03:07:43;21.00;99.90
58554;DHT22;48119;53.218;6.576;2023-06-22T03:10:13;21.00;99.90
58554;DHT22;48119;53.218;6.576;2023-06-22T03:12:41;21.00;99.90
58554;DHT22;48119;53.218;6.576;2023-06-22T03:15:12;20.90;99.90
58554;DHT22;48119;53.218;6.576;2023-06-22T03:17:38;20.90;99.90
58554;DHT22;48119;53.218;6.576;2023-06-22T03:20:05;21.00;99.90
58554;DHT22;48119;53.218;6.576;2023-06-22T03:22:36;20.90;99.90
58554;DHT22;48119;53.218;6.576;2023-06-22T03:25:02;20.90;99.90
58554;DHT22;48119;53.218;6.576;2023-06-22T03:27:28;20.90;99.90
58554;DHT22;48119;53.218;6.576;2023-06-22T03:29:54;20.90;99.90
58554;DHT22;48119;53.218;6.576;2023-06-22T03:32:19;20.90;99.90
58554;DHT22;48119;53.218;6.576;2023-06-22T03:34:45;20.90;99.90
58554;DHT22;48119;53.218;6.576;2023-06-22T03:37:14;20.90;99.90
58554;DHT22;48119;53.218;6.576;2023-06-22T03:39:41;20.90;99.90
58554;DHT22;48119;53.218;6.576;2023-06-22T03:42:07;20.90;99.90
58554;DHT22;48119;53.218;6.576;2023-06-22T03:44:34;20.90;99.90
58554;DHT22;48119;53.218;6.576;2023-06-22T03:47:03;20.90;99.90
58554;DHT22;48119;53.218;6.576;2023-06-22T03:49:29;20.90;99.90
58554;DHT22;48119;53.218;6.576;2023-06-22T03:51:54;20.80;99.90
58554;DHT22;48119;53.218;6.576;2023-06-22T03:54:20;20.90;99.90
58554;DHT22;48119;53.218;6.576;2023-06-22T03:56:46;20.80;99.90
58554;DHT22;48119;53.218;6.576;2023-06-22T03:59:11;20.80;99.90
58554;DHT22;48119;53.218;6.576;2023-06-22T04:01:37;20.80;99.90
58554;DHT22;48119;53.218;6.576;2023-06-22T04:04:03;20.80;99.90
58554;DHT22;48119;53.218;6.576;2023-06-22T04:06:29;20.80;99.90
58554;DHT22;48119;53.218;6.576;2023-06-22T04:08:54;20.70;99.90
58554;DHT22;48119;53.218;6.576;2023-06-22T04:11:20;20.70;99.90
58554;DHT22;48119;53.218;6.576;2023-06-22T04:13:46;20.70;99.90
58554;DHT22;48119;53.218;6.576;2023-06-22T04:16:11;20.70;99.90
58554;DHT22;48119;53.218;6.576;2023-06-22T04:18:37;20.70;99.90
58554;DHT22;48119;53.218;6.576;2023-06-22T04:21:03;20.70;99.90
58554;DHT22;48119;53.218;6.576;2023-06-22T04:23:28;20.70;99.90
58554;DHT22;48119;53.218;6.576;2023-06-22T04:25:54;20.70;99.90
58554;DHT22;48119;53.218;6.576;2023-06-22T04:28:22;20.70;99.90
58554;DHT22;48119;53.218;6.576;2023-06-22T04:30:47;20.70;99.90
58554;DHT22;48119;53.218;6.576;2023-06-22T04:33:14;20.70;99.90
58554;DHT22;48119;53.218;6.576;2023-06-22T04:35:40;20.70;99.90
58554;DHT22;48119;53.218;6.576;2023-06-22T04:38:09;20.70;99.90
58554;DHT22;48119;53.218;6.576;2023-06-22T04:40:34;20.60;99.90
58554;DHT22;48119;53.218;6.576;2023-06-22T04:43:00;20.50;99.90
58554;DHT22;48119;53.218;6.576;2023-06-22T04:45:28;20.50;99.90
58554;DHT22;48119;53.218;6.576;2023-06-22T04:47:57;20.50;99.90
58554;DHT22;48119;53.218;6.576;2023-06-22T04:50:23;20.50;99.90
58554;DHT22;48119;53.218;6.576;2023-06-22T04:52:50;20.60;99.90
58554;DHT22;48119;53.218;6.576;2023-06-22T04:55:15;20.60;99.90
58554;DHT22;48119;53.218;6.576;2023-06-22T04:57:47;20.60;99.90
58554;DHT22;48119;53.218;6.576;2023-06-22T05:00:19;20.60;99.90
58554;DHT22;48119;53.218;6.576;2023-06-22T05:02:47;20.60;99.90
58554;DHT22;48119;53.218;6.576;2023-06-22T05:05:16;20.60;99.90
58554;DHT22;48119;53.218;6.576;2023-06-22T05:07:46;20.60;99.90
58554;DHT22;48119;53.218;6.576;2023-06-22T05:10:14;20.60;99.90
58554;DHT22;48119;53.218;6.576;2023-06-22T05:12:40;20.60;99.90
58554;DHT22;48119;53.218;6.576;2023-06-22T05:15:07;20.60;99.90
58554;DHT22;48119;53.218;6.576;2023-06-22T05:17:34;20.60;99.90
58554;DHT22;48119;53.218;6.576;2023-06-22T05:20:00;20.70;99.90
58554;DHT22;48119;53.218;6.576;2023-06-22T05:22:26;20.70;99.90
58554;DHT22;48119;53.218;6.576;2023-06-22T05:24:51;20.70;99.90
58554;DHT22;48119;53.218;6.576;2023-06-22T05:27:17;20.80;99.90
58554;DHT22;48119;53.218;6.576;2023-06-22T05:29:43;20.80;99.90
58554;DHT22;48119;53.218;6.576;2023-06-22T05:32:09;20.80;99.90
58554;DHT22;48119;53.218;6.576;2023-06-22T05:34:35;20.80;99.90
58554;DHT22;48119;53.218;6.576;2023-06-22T05:37:01;20.80;99.90
58554;DHT22;48119;53.218;6.576;2023-06-22T05:39:27;20.90;99.90
58554;DHT22;48119;53.218;6.576;2023-06-22T05:41:53;20.90;99.90
58554;DHT22;48119;53.218;6.576;2023-06-22T05:44:18;20.90;99.90
58554;DHT22;48119;53.218;6.576;2023-06-22T05:46:45;20.90;99.90
58554;DHT22;48119;53.218;6.576;2023-06-22T05:49:12;21.00;99.90
58554;DHT22;48119;53.218;6.576;2023-06-22T05:51:38;21.00;99.90
58554;DHT22;48119;53.218;6.576;2023-06-22T05:54:04;21.00;99.90
58554;DHT22;48119;53.218;6.576;2023-06-22T05:56:30;21.00;99.90
58554;DHT22;48119;53.218;6.576;2023-06-22T05:58:56;21.10;99.90
58554;DHT22;48119;53.218;6.576;2023-06-22T06:01:22;21.10;99.90
58554;DHT22;48119;53.218;6.576;2023-06-22T06:03:47;21.20;99.90
58554;DHT22;48119;53.218;6.576;2023-06-22T06:06:15;21.20;99.90
58554;DHT22;48119;53.218;6.576;2023-06-22T06:08:41;21.20;99.90
58554;DHT22;48119;53.218;6.576;2023-06-22T06:11:07;21.20;99.90
58554;DHT22;48119;53.218;6.576;2023-06-22T06:13:33;21.20;99.90
58554;DHT22;48119;53.218;6.576;2023-06-22T06:15:59;21.30;99.90
58554;DHT22;48119;53.218;6.576;2023-06-22T06:18:24;21.30;99.90
58554;DHT22;48119;53.218;6.576;2023-06-22T06:20:52;21.30;99.90
58554;DHT22;48119;53.218;6.576;2023-06-22T06:23:18;21.30;99.90
58554;DHT22;48119;53.218;6.576;2023-06-22T06:25:44;21.40;99.90
58554;DHT22;48119;53.218;6.576;2023-06-22T06:28:09;21.40;99.90
58554;DHT22;48119;53.218;6.576;2023-06-22T06:30:35;21.40;99.90
58554;DHT22;48119;53.218;6.576;2023-06-22T06:33:02;21.40;99.90
58554;DHT22;48119;53.218;6.576;2023-06-22T06:35:30;21.40;99.90
58554;DHT22;48119;53.218;6.576;2023-06-22T06:37:55;21.50;99.90
58554;DHT22;48119;53.218;6.576;2023-06-22T06:40:22;21.50;99.90
58554;DHT22;48119;53.218;6.576;2023-06-22T06:42:48;21.50;99.90
58554;DHT22;48119;53.218;6.576;2023-06-22T06:45:21;21.50;99.90
58554;DHT22;48119;53.218;6.576;2023-06-22T06:47:50;21.60;99.90
58554;DHT22;48119;53.218;6.576;2023-06-22T06:50:17;21.60;99.90
58554;DHT22;48119;53.218;6.576;2023-06-22T06:52:43;21.60;99.90
58554;DHT22;48119;53.218;6.576;2023-06-22T06:55:09;21.60;99.90
58554;DHT22;48119;53.218;6.576;2023-06-22T06:57:38;21.60;99.90
58554;DHT22;48119;53.218;6.576;2023-06-22T07:00:09;21.70;99.90
58554;DHT22;48119;53.218;6.576;2023-06-22T07:02:38;21.70;99.90
58554;DHT22;48119;53.218;6.576;2023-06-22T07:05:05;21.70;99.90
58554;DHT22;48119;53.218;6.576;2023-06-22T07:07:32;21.70;99.90
58554;DHT22;48119;53.218;6.576;2023-06-22T07:09:58;21.70;99.90
58554;DHT22;48119;53.218;6.576;2023-06-22T07:12:24;21.80;99.90
58554;DHT22;48119;53.218;6.576;2023-06-22T07:14:50;21.80;99.90
58554;DHT22;48119;53.218;6.576;2023-06-22T07:17:16;21.80;99.90
58554;DHT22;48119;53.218;6.576;2023-06-22T07:19:42;21.90;99.90
58554;DHT22;48119;53.218;6.576;2023-06-22T07:22:08;21.90;99.90
58554;DHT22;48119;53.218;6.576;2023-06-22T07:24:33;21.90;99.90
58554;DHT22;48119;53.218;6.576;2023-06-22T07:26:59;21.90;99.90
58554;DHT22;48119;53.218;6.576;2023-06-22T07:29:25;21.90;99.90
58554;DHT22;48119;53.218;6.576;2023-06-22T07:31:52;22.00;99.90
58554;DHT22;48119;53.218;6.576;2023-06-22T07:34:18;22.00;99.90
58554;DHT22;48119;53.218;6.576;2023-06-22T07:36:45;22.00;99.90
58554;DHT22;48119;53.218;6.576;2023-06-22T07:39:12;22.00;99.90
58554;DHT22;48119;53.218;6.576;2023-06-22T07:41:39;22.00;99.90
58554;DHT22;48119;53.218;6.576;2023-06-22T07:44:06;22.10;99.90
58554;DHT22;48119;53.218;6.576;2023-06-22T07:46:33;22.10;99.90
58554;DHT22;48119;53.218;6.576;2023-06-22T07:48:59;22.20;99.90
58554;DHT22;48119;53.218;6.576;2023-06-22T07:51:25;22.10;99.90
58554;DHT22;48119;53.218;6.576;2023-06-22T07:53:51;22.20;99.90
58554;DHT22;48119;53.218;6.576;2023-06-22T07:56:17;22.20;99.70
58554;DHT22;48119;53.218;6.576;2023-06-22T07:58:45;22.20;99.40
58554;DHT22;48119;53.218;6.576;2023-06-22T08:01:12;22.20;99.40
58554;DHT22;48119;53.218;6.576;2023-06-22T08:03:38;22.20;99.20
58554;DHT22;48119;53.218;6.576;2023-06-22T08:06:05;22.30;99.20
58554;DHT22;48119;53.218;6.576;2023-06-22T08:08:34;22.30;99.00
58554;DHT22;48119;53.218;6.576;2023-06-22T08:10:59;22.30;98.80
58554;DHT22;48119;53.218;6.576;2023-06-22T08:13:25;22.40;98.80
58554;DHT22;48119;53.218;6.576;2023-06-22T08:15:51;22.40;98.70
58554;DHT22;48119;53.218;6.576;2023-06-22T08:18:16;22.40;98.60
58554;DHT22;48119;53.218;6.576;2023-06-22T08:20:42;22.40;98.50
58554;DHT22;48119;53.218;6.576;2023-06-22T08:23:08;22.50;98.50
58554;DHT22;48119;53.218;6.576;2023-06-22T08:25:34;22.50;98.40
58554;DHT22;48119;53.218;6.576;2023-06-22T08:28:01;22.50;98.10
58554;DHT22;48119;53.218;6.576;2023-06-22T08:30:27;22.50;97.80
58554;DHT22;48119;53.218;6.576;2023-06-22T08:32:53;22.60;97.70
58554;DHT22;48119;53.218;6.576;2023-06-22T08:35:21;22.60;97.40
58554;DHT22;48119;53.218;6.576;2023-06-22T08:37:50;22.60;97.40
58554;DHT22;48119;53.218;6.576;2023-06-22T08:40:20;22.60;97.00
58554;DHT22;48119;53.218;6.576;2023-06-22T08:42:46;22.60;97.10
58554;DHT22;48119;53.218;6.576;2023-06-22T08:45:13;22.70;97.00
58554;DHT22;48119;53.218;6.576;2023-06-22T08:47:40;22.70;97.00
58554;DHT22;48119;53.218;6.576;2023-06-22T08:50:10;22.70;97.00
58554;DHT22;48119;53.218;6.576;2023-06-22T08:52:37;22.80;97.00
58554;DHT22;48119;53.218;6.576;2023-06-22T08:55:04;22.80;97.00
58554;DHT22;48119;53.218;6.576;2023-06-22T08:57:29;22.80;96.90
58554;DHT22;48119;53.218;6.576;2023-06-22T08:59:56;22.90;96.90
58554;DHT22;48119;53.218;6.576;2023-06-22T09:02:26;22.90;96.80
58554;DHT22;48119;53.218;6.576;2023-06-22T09:04:56;22.90;96.80
58554;DHT22;48119;53.218;6.576;2023-06-22T09:07:22;23.00;96.80
58554;DHT22;48119;53.218;6.576;2023-06-22T09:09:49;23.00;96.80
58554;DHT22;48119;53.218;6.576;2023-06-22T09:12:15;23.10;96.80
58554;DHT22;48119;53.218;6.576;2023-06-22T09:14:41;23.10;96.80
58554;DHT22;48119;53.218;6.576;2023-06-22T09:17:06;23.10;96.70
58554;DHT22;48119;53.218;6.576;2023-06-22T09:19:32;23.10;96.50
58554;DHT22;48119;53.218;6.576;2023-06-22T09:21:58;23.20;96.50
58554;DHT22;48119;53.218;6.576;2023-06-22T09:24:24;23.20;96.60
58554;DHT22;48119;53.218;6.576;2023-06-22T09:26:50;23.20;96.70
58554;DHT22;48119;53.218;6.576;2023-06-22T09:29:16;23.30;96.50
58554;DHT22;48119;53.218;6.576;2023-06-22T09:31:42;23.30;96.40
58554;DHT22;48119;53.218;6.576;2023-06-22T09:34:08;23.30;96.40
58554;DHT22;48119;53.218;6.576;2023-06-22T09:36:33;23.40;96.40
58554;DHT22;48119;53.218;6.576;2023-06-22T09:39:00;23.40;96.30
58554;DHT22;48119;53.218;6.576;2023-06-22T09:41:31;23.50;96.20
58554;DHT22;48119;53.218;6.576;2023-06-22T09:43:57;23.50;96.10
58554;DHT22;48119;53.218;6.576;2023-06-22T09:46:23;23.50;96.00
58554;DHT22;48119;53.218;6.576;2023-06-22T09:48:53;23.50;96.00
58554;DHT22;48119;53.218;6.576;2023-06-22T09:51:18;23.50;95.90
58554;DHT22;48119;53.218;6.576;2023-06-22T09:53:47;23.50;95.80
58554;DHT22;48119;53.218;6.576;2023-06-22T09:56:13;23.50;95.70
58554;DHT22;48119;53.218;6.576;2023-06-22T09:58:44;23.50;95.60
58554;DHT22;48119;53.218;6.576;2023-06-22T10:01:10;23.50;95.80
58554;DHT22;48119;53.218;6.576;2023-06-22T10:03:36;23.50;95.80
58554;DHT22;48119;53.218;6.576;2023-06-22T10:06:03;23.60;95.80
58554;DHT22;48119;53.218;6.576;2023-06-22T10:08:29;23.60;95.80
58554;DHT22;48119;53.218;6.576;2023-06-22T10:10:54;23.60;95.70
58554;DHT22;48119;53.218;6.576;2023-06-22T10:13:20;23.60;95.70
58554;DHT22;48119;53.218;6.576;2023-06-22T10:15:46;23.70;96.00
58554;DHT22;48119;53.218;6.576;2023-06-22T10:18:17;23.70;95.90
58554;DHT22;48119;53.218;6.576;2023-06-22T10:20:43;23.80;95.80
58554;DHT22;48119;53.218;6.576;2023-06-22T10:23:09;23.80;95.70
58554;DHT22;48119;53.218;6.576;2023-06-22T10:25:34;23.90;95.80
58554;DHT22;48119;53.218;6.576;2023-06-22T10:28:00;23.90;95.60
58554;DHT22;48119;53.218;6.576;2023-06-22T10:30:26;23.90;95.40
58554;DHT22;48119;53.218;6.576;2023-06-22T10:32:52;23.90;95.60
58554;DHT22;48119;53.218;6.576;2023-06-22T10:35:17;23.90;95.60
58554;DHT22;48119;53.218;6.576;2023-06-22T10:37:44;24.00;95.60
58554;DHT22;48119;53.218;6.576;2023-06-22T10:40:14;24.00;95.40
58554;DHT22;48119;53.218;6.576;2023-06-22T10:42:41;24.00;95.30
58554;DHT22;48119;53.218;6.576;2023-06-22T10:45:07;24.10;95.40
58554;DHT22;48119;53.218;6.576;2023-06-22T10:47:34;24.10;95.30
58554;DHT22;48119;53.218;6.576;2023-06-22T10:49:59;24.10;95.30
58554;DHT22;48119;53.218;6.576;2023-06-22T10:52:25;24.10;95.30
58554;DHT22;48119;53.218;6.576;2023-06-22T10:54:51;24.20;95.30
58554;DHT22;48119;53.218;6.576;2023-06-22T10:57:18;24.20;95.20
58554;DHT22;48119;53.218;6.576;2023-06-22T10:59:44;24.20;95.00
58554;DHT22;48119;53.218;6.576;2023-06-22T11:02:09;24.30;94.90
58554;DHT22;48119;53.218;6.576;2023-06-22T11:04:35;24.30;95.10
58554;DHT22;48119;53.218;6.576;2023-06-22T11:07:02;24.40;95.30
58554;DHT22;48119;53.218;6.576;2023-06-22T11:09:28;24.40;95.10
58554;DHT22;48119;53.218;6.576;2023-06-22T11:11:55;24.50;95.00
58554;DHT22;48119;53.218;6.576;2023-06-22T11:14:21;24.50;95.00
58554;DHT22;48119;53.218;6.576;2023-06-22T11:16:47;24.50;94.90
58554;DHT22;48119;53.218;6.576;2023-06-22T11:19:13;24.50;94.70
58554;DHT22;48119;53.218;6.576;2023-06-22T11:21:39;24.50;94.90
58554;DHT22;48119;53.218;6.576;2023-06-22T11:24:05;24.60;95.00
58554;DHT22;48119;53.218;6.576;2023-06-22T11:26:31;24.60;94.80
58554;DHT22;48119;53.218;6.576;2023-06-22T11:28:58;24.60;94.50
58554;DHT22;48119;53.218;6.576;2023-06-22T11:31:24;24.60;94.50
58554;DHT22;48119;53.218;6.576;2023-06-22T11:33:49;24.60;94.40
58554;DHT22;48119;53.218;6.576;2023-06-22T11:36:15;24.60;94.20
58554;DHT22;48119;53.218;6.576;2023-06-22T11:38:41;24.60;94.30
58554;DHT22;48119;53.218;6.576;2023-06-22T11:41:08;24.60;94.40
58554;DHT22;48119;53.218;6.576;2023-06-22T11:43:35;24.60;94.20
58554;DHT22;48119;53.218;6.576;2023-06-22T11:46:03;24.60;94.30
58554;DHT22;48119;53.218;6.576;2023-06-22T11:48:29;24.60;94.50
58554;DHT22;48119;53.218;6.576;2023-06-22T11:50:55;24.70;94.70
58554;DHT22;48119;53.218;6.576;2023-06-22T11:53:22;24.70;94.70
58554;DHT22;48119;53.218;6.576;2023-06-22T11:55:48;24.70;94.80
58554;DHT22;48119;53.218;6.576;2023-06-22T11:58:14;24.70;94.80
58554;DHT22;48119;53.218;6.576;2023-06-22T12:00:40;24.70;94.80
58554;DHT22;48119;53.218;6.576;2023-06-22T12:03:07;24.70;94.70
58554;DHT22;48119;53.218;6.576;2023-06-22T12:05:33;24.60;94.60
58554;DHT22;48119;53.218;6.576;2023-06-22T12:07:59;24.60;94.70
58554;DHT22;48119;53.218;6.576;2023-06-22T12:10:27;24.60;94.80
58554;DHT22;48119;53.218;6.576;2023-06-22T12:12:54;24.60;94.70
58554;DHT22;48119;53.218;6.576;2023-06-22T12:15:20;24.60;94.60
58554;DHT22;48119;53.218;6.576;2023-06-22T12:17:45;24.60;94.60
58554;DHT22;48119;53.218;6.576;2023-06-22T12:20:13;24.50;94.70
58554;DHT22;48119;53.218;6.576;2023-06-22T12:22:41;24.50;94.70
58554;DHT22;48119;53.218;6.576;2023-06-22T12:25:10;24.60;94.60
58554;DHT22;48119;53.218;6.576;2023-06-22T12:27:37;24.50;94.70
58554;DHT22;48119;53.218;6.576;2023-06-22T12:30:04;24.50;94.70
58554;DHT22;48119;53.218;6.576;2023-06-22T12:32:30;24.50;94.70
58554;DHT22;48119;53.218;6.576;2023-06-22T12:34:56;24.50;94.80
58554;DHT22;48119;53.218;6.576;2023-06-22T12:37:22;24.50;94.80
58554;DHT22;48119;53.218;6.576;2023-06-22T12:39:48;24.50;94.80
58554;DHT22;48119;53.218;6.576;2023-06-22T12:42:15;24.50;94.80
58554;DHT22;48119;53.218;6.576;2023-06-22T12:44:41;24.50;94.70
58554;DHT22;48119;53.218;6.576;2023-06-22T12:47:07;24.50;94.60
58554;DHT22;48119;53.218;6.576;2023-06-22T12:49:34;24.50;94.70
58554;DHT22;48119;53.218;6.576;2023-06-22T12:52:01;24.50;94.80
58554;DHT22;48119;53.218;6.576;2023-06-22T12:54:27;24.50;94.80
58554;DHT22;48119;53.218;6.576;2023-06-22T12:56:53;24.50;94.50
58554;DHT22;48119;53.218;6.576;2023-06-22T12:59:19;24.50;94.50
58554;DHT22;48119;53.218;6.576;2023-06-22T13:01:45;24.40;94.40
58554;DHT22;48119;53.218;6.576;2023-06-22T13:04:12;24.40;94.50
58554;DHT22;48119;53.218;6.576;2023-06-22T13:06:41;24.40;94.60
58554;DHT22;48119;53.218;6.576;2023-06-22T13:09:07;24.40;94.30
58554;DHT22;48119;53.218;6.576;2023-06-22T13:11:32;24.40;94.40
58554;DHT22;48119;53.218;6.576;2023-06-22T13:13:58;24.40;94.40
58554;DHT22;48119;53.218;6.576;2023-06-22T13:16:24;24.40;94.40
58554;DHT22;48119;53.218;6.576;2023-06-22T13:18:49;24.40;94.10
58554;DHT22;48119;53.218;6.576;2023-06-22T13:21:15;24.30;94.10
58554;DHT22;48119;53.218;6.576;2023-06-22T13:23:41;24.30;94.10
58554;DHT22;48119;53.218;6.576;2023-06-22T13:26:07;24.30;93.90
58554;DHT22;48119;53.218;6.576;2023-06-22T13:28:33;24.30;94.00
58554;DHT22;48119;53.218;6.576;2023-06-22T13:30:59;24.30;93.90
58554;DHT22;48119;53.218;6.576;2023-06-22T13:33:25;24.30;93.80
58554;DHT22;48119;53.218;6.576;2023-06-22T13:35:50;24.30;93.80
58554;DHT22;48119;53.218;6.576;2023-06-22T13:38:16;24.30;93.80
58554;DHT22;48119;53.218;6.576;2023-06-22T13:40:43;24.30;93.90
58554;DHT22;48119;53.218;6.576;2023-06-22T13:43:09;24.30;93.90
58554;DHT22;48119;53.218;6.576;2023-06-22T13:45:35;24.30;93.70
58554;DHT22;48119;53.218;6.576;2023-06-22T13:48:01;24.30;93.50
58554;DHT22;48119;53.218;6.576;2023-06-22T13:50:26;24.30;93.50
58554;DHT22;48119;53.218;6.576;2023-06-22T13:52:54;24.20;93.40
58554;DHT22;48119;53.218;6.576;2023-06-22T13:55:20;24.20;93.50
58554;DHT22;48119;53.218;6.576;2023-06-22T13:57:46;24.20;93.60
58554;DHT22;48119;53.218;6.576;2023-06-22T14:00:12;24.20;93.50
58554;DHT22;48119;53.218;6.576;2023-06-22T14:02:39;24.20;93.60
58554;DHT22;48119;53.218;6.576;2023-06-22T14:05:06;24.20;93.60
58554;DHT22;48119;53.218;6.576;2023-06-22T14:07:32;24.20;93.40
58554;DHT22;48119;53.218;6.576;2023-06-22T14:09:58;24.20;93.40
58554;DHT22;48119;53.218;6.576;2023-06-22T14:12:24;24.20;93.40
58554;DHT22;48119;53.218;6.576;2023-06-22T14:14:50;24.20;93.50
58554;DHT22;48119;53.218;6.576;2023-06-22T14:17:16;24.20;93.50
58554;DHT22;48119;53.218;6.576;2023-06-22T14:19:42;24.20;93.60
58554;DHT22;48119;53.218;6.576;2023-06-22T14:22:07;24.20;93.80
58554;DHT22;48119;53.218;6.576;2023-06-22T14:24:33;24.20;93.70
58554;DHT22;48119;53.218;6.576;2023-06-22T14:26:59;24.10;93.30
58554;DHT22;48119;53.218;6.576;2023-06-22T14:29:28;24.10;92.80
58554;DHT22;48119;53.218;6.576;2023-06-22T14:31:53;24.10;92.70
58554;DHT22;48119;53.218;6.576;2023-06-22T14:34:19;24.10;92.50
58554;DHT22;48119;53.218;6.576;2023-06-22T14:36:45;24.10;92.30
58554;DHT22;48119;53.218;6.576;2023-06-22T14:39:10;24.00;92.10
58554;DHT22;48119;53.218;6.576;2023-06-22T14:41:36;24.00;92.00
58554;DHT22;48119;53.218;6.576;2023-06-22T14:44:02;24.00;92.00
58554;DHT22;48119;53.218;6.576;2023-06-22T14:46:28;23.90;91.80
58554;DHT22;48119;53.218;6.576;2023-06-22T14:48:53;23.90;91.80
58554;DHT22;48119;53.218;6.576;2023-06-22T14:51:19;23.90;91.80
58554;DHT22;48119;53.218;6.576;2023-06-22T14:53:45;23.90;91.70
58554;DHT22;48119;53.218;6.576;2023-06-22T14:56:12;23.90;91.70
58554;DHT22;48119;53.218;6.576;2023-06-22T14:58:40;23.90;91.80
58554;DHT22;48119;53.218;6.576;2023-06-22T15:01:06;23.90;91.90
58554;DHT22;48119;53.218;6.576;2023-06-22T15:03:34;23.90;92.00
58554;DHT22;48119;53.218;6.576;2023-06-22T15:06:01;23.90;92.00
58554;DHT22;48119;53.218;6.576;2023-06-22T15:08:28;23.90;91.70
58554;DHT22;48119;53.218;6.576;2023-06-22T15:10:54;23.90;91.30
58554;DHT22;48119;53.218;6.576;2023-06-22T15:13:20;23.90;91.50
58554;DHT22;48119;53.218;6.576;2023-06-22T15:15:47;23.90;91.10
58554;DHT22;48119;53.218;6.576;2023-06-22T15:18:16;23.80;90.90
58554;DHT22;48119;53.218;6.576;2023-06-22T15:20:43;23.80;90.90
58554;DHT22;48119;53.218;6.576;2023-06-22T15:23:13;23.70;90.80
58554;DHT22;48119;53.218;6.576;2023-06-22T15:25:39;23.70;90.90
58554;DHT22;48119;53.218;6.576;2023-06-22T15:28:05;23.70;91.00
58554;DHT22;48119;53.218;6.576;2023-06-22T15:30:30;23.70;91.10
58554;DHT22;48119;53.218;6.576;2023-06-22T15:32:57;23.70;91.20
58554;DHT22;48119;53.218;6.576;2023-06-22T15:35:23;23.70;91.30
58554;DHT22;48119;53.218;6.576;2023-06-22T15:37:49;23.70;91.40
58554;DHT22;48119;53.218;6.576;2023-06-22T15:40:17;23.70;91.30
58554;DHT22;48119;53.218;6.576;2023-06-22T15:42:43;23.70;91.30